Terminal Aerodrome Forecast
Issued by NWS

Current Version | Previous Version | Text Only | Print | Product List | Glossary On
Versions: 1 2 3 4 5 6 7 8 9 10 11 12 13 14 15 16 17 18 19 20 21 22 23 24 25 26 27 28 29 30 31 32 33 34 35 36 37 38 39 40 41 42
000
FTUS41 KRNK 162339
TAFBCB
TAF
KBCB 162339Z 1700/1724 34004KT P6SM SCT050
     FM170600 04003KT 4SM BR SCT005
     FM171000 00000KT 3SM BR OVC003
      TEMPO 1710/1712 1SM -DZ
     FM171500 11003KT 6SM BR SCT004 OVC020
     FM171800 15004KT P6SM BKN035=

USA.gov is the U.S. government's official web portal to all federal, state and local government web resources and services.